createdAt,value
2022-07-25T00:01:32.631Z,23.00
2022-07-25T00:04:01.364Z,23.00
2022-07-25T00:06:30.879Z,23.20
2022-07-25T00:09:00.465Z,22.90
2022-07-25T00:11:28.807Z,22.90
2022-07-25T00:13:57.025Z,22.70
2022-07-25T00:16:25.334Z,22.70
2022-07-25T00:18:53.652Z,22.70
2022-07-25T00:21:21.902Z,22.60
2022-07-25T00:23:50.440Z,22.50
2022-07-25T00:26:20.258Z,22.50
2022-07-25T00:28:48.540Z,22.50
2022-07-25T00:31:16.724Z,22.40
2022-07-25T00:33:44.985Z,22.30
2022-07-25T00:36:13.464Z,22.40
2022-07-25T00:38:41.790Z,22.40
2022-07-25T00:41:09.988Z,22.40
2022-07-25T00:43:39.649Z,22.40
2022-07-25T00:46:08.074Z,22.30
2022-07-25T00:48:37.097Z,22.30
2022-07-25T00:51:05.651Z,22.30
2022-07-25T00:53:33.879Z,22.20
2022-07-25T00:56:02.137Z,22.20
2022-07-25T00:58:31.329Z,22.20
2022-07-25T01:01:01.755Z,22.00
2022-07-25T01:03:29.927Z,22.20
2022-07-25T01:05:58.378Z,22.20
2022-07-25T01:08:27.222Z,22.10
2022-07-25T01:10:55.323Z,23.00
2022-07-25T01:13:23.429Z,22.10
2022-07-25T01:15:51.646Z,22.10
2022-07-25T01:18:21.340Z,22.30
2022-07-25T01:20:51.041Z,22.10
2022-07-25T01:23:19.271Z,23.50
2022-07-25T01:25:47.509Z,22.10
2022-07-25T01:28:15.711Z,22.00
2022-07-25T01:30:43.999Z,22.00
2022-07-25T01:33:16.331Z,21.90
2022-07-25T01:35:44.605Z,21.90
2022-07-25T01:38:14.848Z,21.80
2022-07-25T01:40:43.779Z,21.90
2022-07-25T01:43:12.573Z,21.80
2022-07-25T01:45:40.716Z,22.00
2022-07-25T01:48:09.255Z,21.70
2022-07-25T01:50:37.754Z,21.70
2022-07-25T01:53:06.398Z,21.70
2022-07-25T01:55:37.114Z,21.70
2022-07-25T01:58:06.780Z,21.60
2022-07-25T02:00:35.968Z,21.70
2022-07-25T02:03:21.544Z,21.20
2022-07-25T02:05:49.705Z,21.60
2022-07-25T02:08:17.836Z,21.50
2022-07-25T02:10:47.782Z,21.50
2022-07-25T02:13:16.051Z,21.60
2022-07-25T02:15:44.161Z,21.40
2022-07-25T02:18:12.324Z,21.40
2022-07-25T02:20:40.480Z,21.40
2022-07-25T02:23:08.786Z,21.40
2022-07-25T02:25:36.904Z,21.30
2022-07-25T02:28:06.845Z,21.30
2022-07-25T02:30:35.669Z,21.20
2022-07-25T02:33:03.842Z,21.30
2022-07-25T02:35:32.006Z,21.20
2022-07-25T02:37:59.993Z,22.20
2022-07-25T02:40:28.427Z,21.30
2022-07-25T02:42:56.527Z,21.20
2022-07-25T02:45:26.393Z,21.20
2022-07-25T02:47:54.604Z,21.20
2022-07-25T02:50:24.903Z,21.20
2022-07-25T02:52:53.050Z,21.20
2022-07-25T02:55:21.308Z,21.20
2022-07-25T02:57:49.632Z,21.30
2022-07-25T03:00:18.781Z,21.10
2022-07-25T03:02:48.548Z,21.30
2022-07-25T03:05:18.379Z,20.90
2022-07-25T03:07:47.150Z,21.00
2022-07-25T03:10:16.505Z,20.90
2022-07-25T03:12:45.818Z,20.90
2022-07-25T03:15:15.092Z,20.80
2022-07-25T03:17:43.562Z,20.80
2022-07-25T03:20:13.665Z,20.80
2022-07-25T03:22:41.960Z,20.80
2022-07-25T03:25:15.799Z,20.70
2022-07-25T03:27:50.260Z,21.00
2022-07-25T03:30:18.531Z,21.30
2022-07-25T03:32:46.782Z,20.70
2022-07-25T03:35:16.679Z,20.70
2022-07-25T03:37:44.740Z,20.70
2022-07-25T03:40:14.435Z,20.70
2022-07-25T03:42:44.459Z,20.70
2022-07-25T03:45:12.861Z,20.70
2022-07-25T03:47:41.005Z,21.30
2022-07-25T03:50:09.902Z,20.60
2022-07-25T03:52:39.667Z,20.70
2022-07-25T03:55:09.300Z,20.50
2022-07-25T03:57:38.029Z,20.60
2022-07-25T04:00:08.917Z,20.50
2022-07-25T04:02:37.626Z,20.50
2022-07-25T04:05:07.056Z,20.50
2022-07-25T04:07:35.371Z,20.60
2022-07-25T04:10:05.486Z,22.00
2022-07-25T04:12:33.865Z,20.60
2022-07-25T04:15:02.221Z,20.60
2022-07-25T04:17:30.340Z,21.00
2022-07-25T04:19:58.469Z,20.60
2022-07-25T04:22:26.922Z,20.90
2022-07-25T04:24:54.856Z,20.40
2022-07-25T04:27:24.258Z,20.50
2022-07-25T04:29:52.316Z,20.40
2022-07-25T04:32:23.526Z,20.20
2022-07-25T04:34:54.860Z,20.70
2022-07-25T04:37:23.219Z,20.40
2022-07-25T04:39:51.470Z,20.60
2022-07-25T04:42:19.638Z,20.60
2022-07-25T04:44:51.725Z,21.30
2022-07-25T04:47:19.891Z,19.60
2022-07-25T04:49:48.078Z,20.80
2022-07-25T04:52:16.510Z,22.40
2022-07-25T04:54:44.825Z,20.70
2022-07-25T04:57:12.999Z,20.80
2022-07-25T04:59:41.187Z,20.90
2022-07-25T05:02:10.825Z,20.90
2022-07-25T05:04:44.769Z,21.00
2022-07-25T05:07:13.380Z,21.60
2022-07-25T05:09:41.482Z,21.00
2022-07-25T05:12:10.031Z,21.10
2022-07-25T05:14:38.394Z,21.30
2022-07-25T05:17:06.761Z,21.10
2022-07-25T05:19:36.196Z,21.20
2022-07-25T05:22:04.742Z,21.30
2022-07-25T05:24:34.559Z,21.40
2022-07-25T05:27:03.052Z,23.00
2022-07-25T05:29:31.517Z,21.50
2022-07-25T05:31:59.955Z,21.90
2022-07-25T05:34:28.199Z,21.60
2022-07-25T05:36:58.042Z,21.70
2022-07-25T05:39:26.604Z,21.80
2022-07-25T05:41:55.420Z,21.60
2022-07-25T05:44:23.625Z,21.80
2022-07-25T05:46:51.769Z,19.90
2022-07-25T05:49:20.246Z,21.80
2022-07-25T05:51:48.479Z,21.80
2022-07-25T05:54:18.512Z,21.80
2022-07-25T05:56:46.809Z,21.90
2022-07-25T05:59:15.029Z,21.90
2022-07-25T06:01:43.353Z,22.00
2022-07-25T06:04:13.166Z,22.10
2022-07-25T06:06:41.533Z,21.10
2022-07-25T06:09:09.703Z,22.30
2022-07-25T06:11:54.526Z,22.40
2022-07-25T06:14:27.702Z,22.50
2022-07-25T06:16:56.652Z,20.60
2022-07-25T06:19:24.792Z,22.70
2022-07-25T06:21:53.117Z,22.70
2022-07-25T06:24:21.296Z,22.80
2022-07-25T06:26:50.869Z,22.90
2022-07-25T06:29:19.252Z,23.00
2022-07-25T06:31:47.604Z,23.10
2022-07-25T06:34:16.080Z,21.70
2022-07-25T06:36:46.276Z,23.30
2022-07-25T06:39:15.044Z,24.50
2022-07-25T06:41:44.713Z,23.80
2022-07-25T06:44:17.884Z,23.60
2022-07-25T06:46:47.551Z,23.60
2022-07-25T06:49:19.098Z,24.00
2022-07-25T06:51:47.566Z,23.70
2022-07-25T06:54:15.965Z,23.80
2022-07-25T06:56:47.810Z,24.00
2022-07-25T06:59:19.353Z,24.20
2022-07-25T07:01:51.518Z,24.00
2022-07-25T07:04:20.246Z,24.10
2022-07-25T07:06:51.872Z,24.20
2022-07-25T07:09:21.112Z,24.20
2022-07-25T07:11:52.036Z,24.30
2022-07-25T07:14:21.786Z,24.40
2022-07-25T07:16:49.991Z,24.70
2022-07-25T07:19:18.623Z,24.60
2022-07-25T07:21:52.955Z,24.80
2022-07-25T07:24:24.611Z,23.60
2022-07-25T07:29:40.654Z,25.00
2022-07-25T07:32:10.546Z,25.00
2022-07-25T07:34:39.669Z,25.00
2022-07-25T07:37:09.028Z,25.20
2022-07-25T07:39:38.792Z,25.20
2022-07-25T07:42:30.070Z,25.30
2022-07-25T07:47:56.041Z,25.40
2022-07-25T07:50:41.754Z,25.40
2022-07-25T07:53:13.045Z,25.60
2022-07-25T07:55:55.808Z,25.60
2022-07-25T08:01:22.049Z,25.90
2022-07-25T08:03:56.942Z,27.40
2022-07-25T08:06:31.033Z,26.20
2022-07-25T08:09:24.422Z,26.30
2022-07-25T08:11:59.808Z,23.50
2022-07-25T08:17:12.875Z,26.70
2022-07-25T08:19:48.764Z,27.00
2022-07-25T08:22:31.701Z,26.90
2022-07-25T08:25:04.003Z,27.20
2022-07-25T08:27:32.470Z,27.20
2022-07-25T08:30:02.355Z,27.30
2022-07-25T08:32:57.500Z,27.30
2022-07-25T08:35:28.118Z,27.50
2022-07-25T08:37:57.037Z,27.70
2022-07-25T08:40:28.113Z,27.60
2022-07-25T08:46:09.905Z,27.80
2022-07-25T08:48:40.646Z,27.70
2022-07-25T08:51:09.790Z,27.80
2022-07-25T08:53:39.323Z,29.50
2022-07-25T08:56:14.555Z,27.90
2022-07-25T08:58:48.486Z,28.00
2022-07-25T09:01:19.329Z,28.00
2022-07-25T09:03:49.031Z,28.10
2022-07-25T09:06:24.975Z,28.40
2022-07-25T09:08:58.867Z,28.20
2022-07-25T09:11:33.773Z,28.40
2022-07-25T09:14:20.791Z,28.40
2022-07-25T09:26:11.712Z,29.00
2022-07-25T09:28:42.880Z,29.50
2022-07-25T09:31:19.189Z,29.40
2022-07-25T09:33:55.216Z,29.40
2022-07-25T09:40:02.550Z,29.70
2022-07-25T09:42:34.345Z,29.80
2022-07-25T09:45:20.312Z,29.70
2022-07-25T09:48:00.055Z,30.10
2022-07-25T09:50:29.749Z,30.00
2022-07-25T09:55:57.463Z,30.20
2022-07-25T09:58:28.553Z,30.20
2022-07-25T10:01:09.229Z,30.60
2022-07-25T10:03:52.606Z,30.60
2022-07-25T10:06:23.495Z,30.30
2022-07-25T10:12:15.934Z,30.50
2022-07-25T10:14:44.277Z,30.40
2022-07-25T10:17:22.829Z,30.50
2022-07-25T10:19:55.411Z,27.20
2022-07-25T10:22:58.678Z,30.60
2022-07-25T10:25:27.376Z,30.60
2022-07-25T10:28:01.489Z,30.80
2022-07-25T10:30:36.110Z,30.80
2022-07-25T10:33:06.636Z,30.90
2022-07-25T10:35:34.871Z,31.00
2022-07-25T10:38:05.995Z,31.10
2022-07-25T10:40:38.674Z,31.20
2022-07-25T10:43:15.512Z,31.50
2022-07-25T10:45:46.872Z,31.60
2022-07-25T10:48:23.036Z,31.60
2022-07-25T10:50:56.660Z,31.40
2022-07-25T10:53:35.792Z,31.40
2022-07-25T10:56:10.618Z,31.60
2022-07-25T10:58:50.920Z,31.80
2022-07-25T11:01:26.115Z,29.30
2022-07-25T11:03:56.068Z,32.00
2022-07-25T11:06:32.960Z,31.90
2022-07-25T11:09:02.016Z,32.00
2022-07-25T11:11:37.806Z,32.10
2022-07-25T11:14:16.263Z,30.90
2022-07-25T11:16:46.029Z,32.30
2022-07-25T11:19:19.109Z,32.40
2022-07-25T11:21:48.264Z,32.80
2022-07-25T11:24:17.434Z,32.40
2022-07-25T11:26:52.399Z,33.00
2022-07-25T11:29:27.426Z,32.90
2022-07-25T11:31:57.187Z,32.90
2022-07-25T11:34:29.180Z,33.50
2022-07-25T11:36:59.527Z,33.00
2022-07-25T11:39:28.679Z,32.90
2022-07-25T11:42:05.379Z,32.80
2022-07-25T11:44:36.794Z,32.80
2022-07-25T11:47:06.291Z,33.00
2022-07-25T11:49:46.624Z,33.10
2022-07-25T11:52:23.081Z,33.80
2022-07-25T11:54:53.436Z,33.30
2022-07-25T11:57:23.463Z,33.40
2022-07-25T11:59:53.525Z,33.40
2022-07-25T12:02:31.271Z,33.40
2022-07-25T12:05:04.829Z,33.60
2022-07-25T12:07:57.910Z,33.60
2022-07-25T12:10:34.866Z,34.10
2022-07-25T12:13:04.527Z,33.80
2022-07-25T12:15:39.506Z,33.90
2022-07-25T12:18:11.117Z,33.90
2022-07-25T12:20:46.091Z,33.80
2022-07-25T12:23:16.177Z,31.70
2022-07-25T12:25:49.194Z,33.70
2022-07-25T12:28:18.362Z,33.80
2022-07-25T12:30:56.001Z,33.60
2022-07-25T12:33:27.926Z,33.70
2022-07-25T12:35:56.488Z,33.90
2022-07-25T12:38:24.903Z,34.10
2022-07-25T12:41:07.233Z,34.20
2022-07-25T12:43:35.496Z,34.10
2022-07-25T12:46:09.737Z,34.50
2022-07-25T12:48:39.044Z,34.40
2022-07-25T12:51:08.777Z,34.40
2022-07-25T12:53:41.738Z,34.40
2022-07-25T12:56:11.679Z,34.40
2022-07-25T12:58:39.927Z,34.50
2022-07-25T13:01:13.661Z,34.40
2022-07-25T13:03:45.709Z,34.70
2022-07-25T13:06:13.814Z,34.40
2022-07-25T13:08:44.371Z,34.50
2022-07-25T13:11:13.173Z,34.80
2022-07-25T13:13:43.996Z,34.90
2022-07-25T13:16:15.894Z,34.90
2022-07-25T13:18:44.414Z,35.00
2022-07-25T13:21:12.968Z,34.80
2022-07-25T13:23:43.806Z,35.10
2022-07-25T13:26:13.024Z,35.30
2022-07-25T13:28:45.000Z,35.40
2022-07-25T13:31:17.693Z,35.40
2022-07-25T13:33:46.281Z,35.50
2022-07-25T13:36:15.328Z,35.60
2022-07-25T13:38:44.728Z,34.00
2022-07-25T13:41:16.599Z,35.60
2022-07-25T13:43:48.509Z,35.40
2022-07-25T13:46:18.361Z,35.40
2022-07-25T13:48:48.886Z,35.30
2022-07-25T13:51:20.113Z,35.60
2022-07-25T13:53:51.403Z,35.90
2022-07-25T13:56:20.014Z,35.80
2022-07-25T13:58:48.620Z,35.30
2022-07-25T14:01:19.246Z,35.80
2022-07-25T14:03:48.126Z,35.80
2022-07-25T14:06:16.704Z,35.70
2022-07-25T14:08:45.262Z,35.70
2022-07-25T14:11:15.943Z,35.60
2022-07-25T14:13:45.349Z,35.50
2022-07-25T14:16:21.252Z,35.80
2022-07-25T14:18:53.141Z,33.40
2022-07-25T14:21:22.935Z,35.20
2022-07-25T14:23:53.442Z,35.40
2022-07-25T14:26:23.055Z,35.70
2022-07-25T14:28:53.822Z,35.80
2022-07-25T14:31:25.767Z,35.00
2022-07-25T14:33:54.543Z,35.50
2022-07-25T14:39:02.515Z,35.40
2022-07-25T14:41:43.282Z,34.60
2022-07-25T14:44:17.291Z,35.30
2022-07-25T14:46:51.993Z,35.50
2022-07-25T14:49:21.722Z,35.70
2022-07-25T14:51:50.479Z,36.00
2022-07-25T14:54:19.768Z,35.70
2022-07-25T14:57:08.867Z,35.70
2022-07-25T14:59:50.982Z,35.60
2022-07-25T15:02:24.123Z,35.70
2022-07-25T15:04:53.013Z,35.80
2022-07-25T15:07:25.426Z,35.80
2022-07-25T15:09:58.058Z,36.10
2022-07-25T15:12:27.246Z,35.90
2022-07-25T15:14:57.232Z,36.10
2022-07-25T15:17:27.069Z,36.20
2022-07-25T15:19:55.310Z,36.40
2022-07-25T15:22:28.216Z,36.60
2022-07-25T15:28:07.492Z,36.80
2022-07-25T15:30:51.947Z,36.60
2022-07-25T15:33:31.283Z,36.60
2022-07-25T15:36:28.813Z,37.80
2022-07-25T15:39:00.752Z,37.60
2022-07-25T15:41:41.565Z,37.70
2022-07-25T15:44:10.579Z,37.40
2022-07-25T15:46:49.570Z,37.00
2022-07-25T15:49:20.274Z,37.10
2022-07-25T15:51:50.064Z,37.40
2022-07-25T15:54:18.333Z,37.40
2022-07-25T15:56:46.885Z,34.60
2022-07-25T15:59:16.377Z,37.20
2022-07-25T16:01:55.968Z,37.30
2022-07-25T16:04:30.873Z,37.10
2022-07-25T16:06:59.448Z,37.10
2022-07-25T16:09:28.097Z,37.40
2022-07-25T16:11:56.448Z,37.10
2022-07-25T16:14:24.933Z,37.00
2022-07-25T16:16:57.041Z,36.80
2022-07-25T16:19:26.862Z,37.30
2022-07-25T16:21:57.332Z,37.30
2022-07-25T16:24:25.651Z,34.30
2022-07-25T16:26:54.029Z,36.20
2022-07-25T16:29:23.285Z,37.60
2022-07-25T16:31:54.276Z,38.00
2022-07-25T16:34:28.622Z,37.80
2022-07-25T16:37:02.984Z,37.70
2022-07-25T16:39:32.023Z,37.80
2022-07-25T16:42:00.278Z,37.90
2022-07-25T16:44:28.639Z,37.80
2022-07-25T16:46:57.473Z,37.70
2022-07-25T16:49:26.089Z,37.40
2022-07-25T16:51:54.527Z,37.40
2022-07-25T16:54:26.173Z,37.30
2022-07-25T16:56:58.290Z,37.00
2022-07-25T16:59:27.898Z,36.80
2022-07-25T17:01:58.947Z,36.50
2022-07-25T17:04:27.374Z,36.50
2022-07-25T17:06:56.144Z,36.20
2022-07-25T17:09:25.830Z,33.90
2022-07-25T17:11:55.260Z,36.00
2022-07-25T17:14:27.881Z,35.60
2022-07-25T17:16:59.085Z,34.40
2022-07-25T17:19:28.318Z,35.20
2022-07-25T17:22:04.530Z,35.20
2022-07-25T17:24:35.724Z,32.30
2022-07-25T17:27:06.323Z,35.30
2022-07-25T17:29:35.617Z,32.50
2022-07-25T17:32:06.780Z,35.10
2022-07-25T17:34:36.701Z,35.20
2022-07-25T17:37:06.700Z,35.00
2022-07-25T17:39:37.124Z,35.10
2022-07-25T17:42:08.286Z,34.90
2022-07-25T17:44:38.857Z,34.40
2022-07-25T17:47:07.925Z,33.80
2022-07-25T17:49:36.481Z,34.00
2022-07-25T17:52:05.622Z,31.60
2022-07-25T17:54:40.918Z,34.20
2022-07-25T17:57:11.760Z,33.40
2022-07-25T17:59:43.794Z,34.30
2022-07-25T18:02:19.452Z,33.90
2022-07-25T18:04:50.966Z,34.00
2022-07-25T18:07:21.653Z,33.60
2022-07-25T18:09:54.214Z,33.30
2022-07-25T18:12:27.437Z,33.00
2022-07-25T18:14:57.515Z,32.90
2022-07-25T18:17:25.703Z,32.70
2022-07-25T18:19:53.852Z,32.20
2022-07-25T18:22:22.514Z,32.00
2022-07-25T18:24:52.257Z,32.00
2022-07-25T18:27:20.647Z,31.70
2022-07-25T18:29:48.705Z,31.60
2022-07-25T18:32:16.891Z,31.40
2022-07-25T18:34:45.241Z,31.40
2022-07-25T18:37:13.790Z,31.10
2022-07-25T18:39:42.976Z,29.70
2022-07-25T18:42:12.808Z,31.20
2022-07-25T18:44:41.618Z,30.80
2022-07-25T18:47:09.897Z,30.80
2022-07-25T18:49:38.263Z,30.70
2022-07-25T18:52:07.017Z,30.60
2022-07-25T18:54:35.934Z,30.60
2022-07-25T18:57:06.487Z,28.60
2022-07-25T18:59:37.199Z,30.40
2022-07-25T19:02:05.578Z,30.30
2022-07-25T19:04:34.036Z,30.20
2022-07-25T19:07:02.312Z,30.10
2022-07-25T19:09:30.259Z,30.10
2022-07-25T19:11:58.255Z,29.80
2022-07-25T19:14:27.359Z,30.00
2022-07-25T19:16:57.519Z,29.80
2022-07-25T19:19:25.985Z,29.80
2022-07-25T19:21:54.692Z,29.70
2022-07-25T19:24:23.267Z,29.60
2022-07-25T19:26:51.382Z,29.40
2022-07-25T19:29:19.669Z,29.30
2022-07-25T19:31:47.756Z,29.30
2022-07-25T19:34:17.129Z,29.30
2022-07-25T19:36:45.923Z,29.20
2022-07-25T19:39:14.649Z,30.20
2022-07-25T19:41:47.040Z,29.10
2022-07-25T19:44:15.460Z,28.50
2022-07-25T19:46:43.496Z,29.10
2022-07-25T19:49:11.715Z,29.10
2022-07-25T19:51:41.165Z,29.10
2022-07-25T19:54:09.790Z,29.10
2022-07-25T19:56:38.089Z,28.80
2022-07-25T19:59:06.319Z,28.70
2022-07-25T20:01:35.931Z,28.60
2022-07-25T20:04:05.572Z,28.60
2022-07-25T20:06:34.093Z,28.70
2022-07-25T20:09:03.906Z,28.70
2022-07-25T20:11:32.612Z,28.70
2022-07-25T20:14:01.794Z,28.70
2022-07-25T20:16:30.052Z,28.60
2022-07-25T20:18:58.548Z,28.80
2022-07-25T20:21:27.378Z,28.50
2022-07-25T20:23:55.824Z,28.30
2022-07-25T20:26:25.638Z,28.10
2022-07-25T20:28:55.151Z,28.00
2022-07-25T20:31:25.461Z,27.50
2022-07-25T20:33:54.045Z,27.50
2022-07-25T20:36:22.658Z,27.10
2022-07-25T20:38:51.013Z,26.40
2022-07-25T20:41:20.583Z,26.00
2022-07-25T20:43:52.079Z,25.60
2022-07-25T20:46:20.103Z,25.10
2022-07-25T20:48:48.879Z,24.80
2022-07-25T20:51:17.435Z,24.70
2022-07-25T20:53:45.695Z,24.60
2022-07-25T20:56:21.760Z,24.50
2022-07-25T20:58:52.085Z,24.80
2022-07-25T21:01:20.491Z,24.60
2022-07-25T21:03:48.500Z,24.70
2022-07-25T21:06:16.945Z,24.80
2022-07-25T21:08:45.050Z,24.80
2022-07-25T21:11:13.907Z,22.20
2022-07-25T21:13:42.156Z,24.30
2022-07-25T21:16:11.938Z,24.20
2022-07-25T21:18:40.128Z,23.90
2022-07-25T21:21:12.077Z,23.90
2022-07-25T21:23:40.507Z,23.80
2022-07-25T21:26:08.866Z,23.80
2022-07-25T21:28:37.020Z,23.50
2022-07-25T21:31:05.231Z,23.30
2022-07-25T21:33:34.769Z,23.00
2022-07-25T21:36:03.011Z,22.90
2022-07-25T21:38:34.852Z,22.60
2022-07-25T21:41:14.498Z,19.40
2022-07-25T21:43:46.807Z,22.20
2022-07-25T21:46:18.336Z,21.90
2022-07-25T21:49:07.246Z,21.60
2022-07-25T21:51:41.245Z,21.70
2022-07-25T21:54:24.455Z,21.20
2022-07-25T21:56:54.431Z,21.20
2022-07-25T21:59:24.057Z,20.60
2022-07-25T22:01:52.756Z,20.60
2022-07-25T22:04:24.612Z,20.70
2022-07-25T22:06:53.802Z,20.60
2022-07-25T22:09:22.890Z,22.30
2022-07-25T22:11:51.709Z,20.10
2022-07-25T22:14:20.694Z,19.90
2022-07-25T22:16:49.421Z,19.70
2022-07-25T22:19:22.315Z,19.90
2022-07-25T22:21:56.060Z,18.20
2022-07-25T22:24:30.494Z,19.10
2022-07-25T22:32:24.485Z,19.20
2022-07-25T22:35:09.981Z,18.70
2022-07-25T22:37:43.445Z,18.90
2022-07-25T22:48:27.015Z,18.80
2022-07-25T22:50:59.640Z,19.00
2022-07-25T22:53:29.488Z,19.10
2022-07-25T22:55:57.613Z,18.70
2022-07-25T22:58:28.188Z,18.90
2022-07-25T23:00:57.228Z,21.30
2022-07-25T23:03:31.481Z,18.70
2022-07-25T23:06:02.716Z,18.70
2022-07-25T23:08:32.482Z,18.70
2022-07-25T23:11:01.045Z,17.20
2022-07-25T23:13:29.148Z,18.60
2022-07-25T23:15:57.391Z,18.70
2022-07-25T23:18:25.608Z,18.70
2022-07-25T23:20:53.692Z,18.60
2022-07-25T23:23:22.141Z,18.60
2022-07-25T23:25:51.836Z,18.50
2022-07-25T23:28:20.923Z,18.50
2022-07-25T23:30:49.061Z,18.50
2022-07-25T23:33:17.204Z,18.50
2022-07-25T23:35:50.000Z,16.00
2022-07-25T23:38:19.753Z,18.50
2022-07-25T23:40:48.282Z,17.10
2022-07-25T23:43:52.206Z,18.90
2022-07-25T23:46:08.594Z,17.10
2022-07-25T23:48:37.831Z,18.50
2022-07-25T23:51:07.480Z,18.40
2022-07-25T23:53:37.503Z,18.60
2022-07-25T23:56:06.505Z,18.80
2022-07-25T23:58:38.172Z,18.70
